Strona główna
METAR-TAF:

METAR-TAF

Lotnisko :

Angers, Francja

Szerokość geograficzna: 47-33-37N, Długość geograficzna: 000-18-44W, wysokość: 59 m

Aktualna obserwacja pogody

Raport powstał 22 minut temu, godzina 07:30 UTC
Wiatr 8 kt od północno-północny wschód
Temperatura 1°C
Wilgotność 86%
Ciśnienie 1045 hPa
Widzialność 10 km lub więcej
Brak chmur poniżej 1500 m i brak chmur cumulonimbus

METAR: LFJR 200730Z AUTO 02008KT CAVOK 01/M01 Q1045

czas: 08:52 (07:52 UTC)


TAF: brakujący

Obserwacja i prognoza pogody dla ponad 4000 lotnisk (raport METAR i TAF).

Dostępne stacje oznaczono żółtymi i czerwonymi punktami na mapie.

Najedź kursorem aby zobaczyć nazwę stacji.

Kliknij aby zobaczyć obserwacje i prognozy pogody.

Aby zmienić mapę: kliknij na zielony przycisk z czarnym krzyżykiem, aby powiększyć; na zielony przycisk z myślnikiem, aby pomniejszyć; na zielone strzałki, aby przejść do map sąsiednich.


METAR-TAF: